map of MAX home
MAX - Airport
Location
City:  Matam, Matam, Senegal
Name:Ouro Sogui Airport
ICAO:GOSM
IATA:MAX

Details
Type:Airport (Aerodrome, Airfield)
Latitude:15°35'37"N (15.593611)
Longitude:13°19'22"W (-13.322777)
Elevation:85 ft (26 m)
Variation:5.40°W (WMM2015 magnetic declination)
0.11° annual change
Runways:1
Longest:6299 ft (1920 m)

Time
Time Zone:UTC+0
Local Time:

Weather
METAR:GOSM 160300Z 06002KT CAVOK 29/19 Q1012

Related Locations
Nearby:
Farthest:SON: 12413 mi / 19977 km
Espíritu Santo (Luganville) [Santo-Pekoa Intl], Espíritu Santo Island, SAM, VU

Find:

   beyond  
but within

Other Information
Maps:
NOTAMs:
Links:
Sources:

  
  • flag of Senegal
  

Sectional Chart

Flight Planning
at skyvector.com

Satellite Image

Google Maps Satellite view

 

Copyright © 2004-2018 Karl L. Swartz. All rights reserved.
The Great Circle Mapper name and logo are trademarks of the Great Circle Mapper.
All other trademarks mentioned herein belong to their respective owners.
Please see credits for attibutions and further copyright information.

  Follow gcmap on Facebook Follow gcmap on Twitter Follow gcmap on Google+ GCmap on LinkedIn

hCard Microformat

Geo Microformat